Terminal Aerodrome Forecast
Issued by NWS

Home | Current Version | Previous Version | Text Only | Print | Product List | Glossary Off
Versions: 1 2 3 4 5 6 7 8 9 10 11 12

000
FTUS43 KMPX 122300
TAFAXN
TAF
KAXN 122335Z 1300/1324 29009KT P6SM SKC
     FM130300 28007KT P6SM VCSH FEW060 SCT090
     FM130600 30007KT P6SM FEW090
     FM131500 31017G24KT P6SM SCT060=

USA.gov is the U.S. government's official web portal to all federal, state and local government web resources and services.